Time;durP1;ratioP1;P1;durP2;ratioP2;P2;SDS_P1;SDS_P2;PMS_P1;PMS_P2;Temp;Humidity;BMP_temperature;BMP_pressure;BME280_temperature;BME280_humidity;BME280_pressure;Samples;Min_cycle;Max_cycle;Signal;HPM_P1;HPM_P2
2020/12/27 00:02:10;;;;;;;16.52;10.15;;;7.00;99.90;;;;;;4917344;28;20031;-86
2020/12/27 00:04:39;;;;;;;12.18;10.93;;;7.00;99.90;;;;;;4956947;28;20023;-85
2020/12/27 00:07:10;;;;;;;13.93;10.88;;;7.00;99.90;;;;;;4957118;28;20038;-86
2020/12/27 00:09:36;;;;;;;15.30;11.27;;;7.00;99.90;;;;;;4957916;28;20055;-85
2020/12/27 00:12:02;;;;;;;14.18;11.02;;;7.00;99.90;;;;;;4956639;28;20035;-86
2020/12/27 00:14:28;;;;;;;12.30;11.00;;;7.00;99.90;;;;;;4938080;29;20122;-85
2020/12/27 00:16:54;;;;;;;13.02;11.68;;;7.00;99.90;;;;;;4919214;29;20126;-89
2020/12/27 00:19:19;;;;;;;13.60;11.05;;;7.00;99.90;;;;;;4934770;29;20059;-85
2020/12/27 00:21:45;;;;;;;15.15;11.02;;;7.00;99.90;;;;;;4934619;29;20024;-85
2020/12/27 00:24:11;;;;;;;14.75;10.73;;;6.90;99.90;;;;;;4918588;29;20036;-85
2020/12/27 00:26:36;;;;;;;15.23;11.88;;;6.90;99.90;;;;;;4903441;29;20386;-85
2020/12/27 00:29:03;;;;;;;14.88;11.02;;;6.90;99.90;;;;;;4918824;29;20035;-85
2020/12/27 00:31:29;;;;;;;15.13;11.70;;;6.90;99.90;;;;;;4919216;29;20083;-84
2020/12/27 00:33:54;;;;;;;15.52;11.55;;;6.90;99.90;;;;;;4940271;29;20573;-84
2020/12/27 00:36:21;;;;;;;12.90;11.15;;;6.90;99.90;;;;;;4935399;29;20038;-86
2020/12/27 00:38:47;;;;;;;15.48;12.55;;;6.90;99.90;;;;;;4934400;29;20032;-85
2020/12/27 00:41:20;;;;;;;16.10;11.88;;;6.90;99.90;;;;;;4934314;29;20038;-84
2020/12/27 00:43:47;;;;;;;19.45;11.75;;;6.90;99.90;;;;;;4948169;28;20169;-82
2020/12/27 00:46:13;;;;;;;17.15;12.20;;;6.80;99.90;;;;;;4940958;28;20050;-84
2020/12/27 00:48:38;;;;;;;14.80;12.48;;;6.80;99.90;;;;;;4940826;28;20027;-84
2020/12/27 00:51:04;;;;;;;13.80;12.10;;;6.80;99.90;;;;;;4940333;28;20035;-83
2020/12/27 00:53:29;;;;;;;15.60;11.27;;;6.80;99.90;;;;;;4940467;28;20094;-84
2020/12/27 00:55:55;;;;;;;15.50;11.48;;;6.80;99.90;;;;;;4957187;28;20491;-84
2020/12/27 00:58:20;;;;;;;15.20;11.30;;;6.80;99.90;;;;;;4940803;28;20093;-83
2020/12/27 01:00:46;;;;;;;13.10;11.57;;;6.70;99.90;;;;;;4956669;28;20038;-84
2020/12/27 01:03:12;;;;;;;14.00;11.70;;;6.70;99.90;;;;;;4940776;28;20113;-85
2020/12/27 01:05:37;;;;;;;15.13;12.18;;;6.70;99.90;;;;;;4956664;28;20117;-84
2020/12/27 01:08:03;;;;;;;12.65;10.98;;;6.70;99.90;;;;;;4956578;28;20082;-85
2020/12/27 01:10:28;;;;;;;14.57;11.73;;;6.60;99.90;;;;;;4956663;28;20449;-84
2020/12/27 01:12:54;;;;;;;15.98;11.35;;;6.60;99.90;;;;;;4940829;28;20027;-84
2020/12/27 01:15:19;;;;;;;15.35;10.77;;;6.60;99.90;;;;;;4940877;28;20392;-83
2020/12/27 01:17:45;;;;;;;18.88;11.23;;;6.60;99.90;;;;;;4956710;28;20421;-83
2020/12/27 01:20:11;;;;;;;17.00;11.60;;;6.60;99.90;;;;;;4956696;28;20027;-84
2020/12/27 01:22:36;;;;;;;13.52;11.23;;;6.60;99.90;;;;;;4940566;28;20027;-84
2020/12/27 01:25:02;;;;;;;14.93;11.88;;;6.60;99.90;;;;;;4956735;28;20035;-85
2020/12/27 01:27:28;;;;;;;13.55;10.68;;;6.60;99.90;;;;;;4974208;28;20062;-84
2020/12/27 01:29:53;;;;;;;16.73;11.57;;;6.50;99.90;;;;;;4941068;28;20065;-84
2020/12/27 01:32:19;;;;;;;16.83;11.68;;;6.50;99.90;;;;;;4940507;28;20499;-83
2020/12/27 01:34:44;;;;;;;17.58;11.23;;;6.60;99.90;;;;;;4956855;28;20067;-83
2020/12/27 01:37:10;;;;;;;13.82;11.80;;;6.50;99.90;;;;;;4956688;28;20046;-84
2020/12/27 01:39:36;;;;;;;14.13;11.43;;;6.50;99.90;;;;;;4973932;28;20038;-84
2020/12/27 01:42:01;;;;;;;13.85;11.38;;;6.50;99.90;;;;;;4941235;28;20038;-83
2020/12/27 01:44:27;;;;;;;14.32;11.38;;;6.50;99.90;;;;;;4946541;28;20062;-84
2020/12/27 01:46:53;;;;;;;13.38;11.02;;;6.50;99.90;;;;;;4958482;28;20093;-86
2020/12/27 01:49:18;;;;;;;16.42;10.68;;;6.50;99.90;;;;;;4992025;28;20011;-82
2020/12/27 01:51:44;;;;;;;18.83;10.95;;;6.50;99.90;;;;;;4970444;28;20027;-83
2020/12/27 01:54:09;;;;;;;14.20;11.65;;;6.50;99.90;;;;;;4942922;28;20086;-85
2020/12/27 01:56:40;;;;;;;17.63;11.20;;;6.40;99.90;;;;;;4940823;28;20031;-84
2020/12/27 01:59:39;;;;;;;17.40;11.30;;;6.40;99.90;;;;;;4973326;28;20034;-85
2020/12/27 02:02:08;;;;;;;13.43;11.18;;;6.40;99.90;;;;;;4944393;28;20035;-85
2020/12/27 02:04:34;;;;;;;15.23;10.90;;;6.40;99.90;;;;;;4945602;28;20031;-83
2020/12/27 02:07:07;;;;;;;16.13;11.38;;;6.40;99.90;;;;;;4961142;28;20049;-83
2020/12/27 02:09:36;;;;;;;14.45;10.73;;;6.40;99.90;;;;;;4959347;28;20043;-84
2020/12/27 02:12:13;;;;;;;19.80;11.63;;;6.40;99.90;;;;;;4959648;28;20519;-84
2020/12/27 02:14:39;;;;;;;15.07;10.82;;;6.40;99.90;;;;;;4959767;28;20042;-84
2020/12/27 02:17:06;;;;;;;14.68;10.98;;;6.40;99.90;;;;;;4959772;28;20042;-84
2020/12/27 02:19:33;;;;;;;16.13;12.02;;;6.40;99.90;;;;;;4959512;28;20121;-85
2020/12/27 02:22:00;;;;;;;14.50;12.82;;;6.30;99.90;;;;;;4978528;28;20033;-85
2020/12/27 02:24:26;;;;;;;18.30;12.52;;;6.30;99.90;;;;;;4959242;28;20030;-83
2020/12/27 02:27:00;;;;;;;19.33;12.77;;;6.30;99.90;;;;;;4959328;28;20046;-84
2020/12/27 02:29:27;;;;;;;19.75;12.27;;;6.30;99.90;;;;;;4976574;28;20019;-84
2020/12/27 02:31:54;;;;;;;15.63;12.73;;;6.30;99.90;;;;;;4959635;28;20054;-83
2020/12/27 02:34:20;;;;;;;19.40;13.45;;;6.30;99.90;;;;;;4943071;28;20035;-83
2020/12/27 02:36:46;;;;;;;16.58;11.88;;;6.30;99.90;;;;;;4943244;28;20396;-84
2020/12/27 02:39:13;;;;;;;18.42;11.60;;;6.30;99.90;;;;;;4959205;28;20042;-84
2020/12/27 02:41:39;;;;;;;19.67;11.85;;;6.30;99.90;;;;;;4959187;28;20026;-84
2020/12/27 02:44:06;;;;;;;18.30;11.95;;;6.30;99.90;;;;;;4958624;28;20054;-83
2020/12/27 02:46:32;;;;;;;19.65;11.68;;;6.30;99.90;;;;;;4958852;28;20046;-84
2020/12/27 02:48:57;;;;;;;14.77;11.80;;;6.30;99.90;;;;;;4959074;28;20399;-83
2020/12/27 02:51:24;;;;;;;19.60;12.48;;;6.20;99.90;;;;;;4943037;28;20030;-83
2020/12/27 02:53:50;;;;;;;14.13;11.30;;;6.20;99.90;;;;;;4943049;28;20054;-83
2020/12/27 02:56:21;;;;;;;22.90;14.00;;;6.20;99.90;;;;;;4942657;28;20044;-85
2020/12/27 02:58:47;;;;;;;15.80;12.55;;;6.10;99.90;;;;;;4959153;28;20039;-84
2020/12/27 03:01:13;;;;;;;17.50;12.07;;;6.00;99.90;;;;;;4942883;28;20503;-84
2020/12/27 03:03:39;;;;;;;15.68;11.68;;;6.00;99.90;;;;;;4958957;28;20495;-84
2020/12/27 03:06:05;;;;;;;16.98;12.77;;;6.00;99.90;;;;;;4958510;28;20031;-83
2020/12/27 03:08:31;;;;;;;17.98;12.32;;;6.00;99.90;;;;;;4975655;28;20506;-84
2020/12/27 03:10:57;;;;;;;16.60;11.55;;;5.90;99.90;;;;;;4942147;28;20055;-83
2020/12/27 03:13:23;;;;;;;18.70;10.73;;;5.90;99.90;;;;;;4958500;28;20039;-82
2020/12/27 03:15:51;;;;;;;20.05;12.85;;;5.90;99.90;;;;;;4958112;28;20040;-83
2020/12/27 03:18:17;;;;;;;14.77;11.73;;;5.90;99.90;;;;;;4942693;28;20469;-83
2020/12/27 03:20:43;;;;;;;17.70;12.45;;;5.80;99.90;;;;;;4958280;28;20059;-83
2020/12/27 03:23:09;;;;;;;17.42;12.15;;;5.70;99.90;;;;;;4975529;28;20120;-83
2020/12/27 03:25:35;;;;;;;16.63;10.82;;;5.70;99.90;;;;;;4975296;28;20468;-83
2020/12/27 03:28:00;;;;;;;14.20;12.00;;;5.80;99.90;;;;;;4958311;28;20034;-83
2020/12/27 03:30:26;;;;;;;15.45;11.50;;;5.70;99.90;;;;;;4942522;28;20039;-84
2020/12/27 03:32:52;;;;;;;17.25;10.65;;;5.70;99.90;;;;;;4942102;28;20074;-84
2020/12/27 03:35:18;;;;;;;13.85;9.98;;;5.80;99.90;;;;;;4941919;28;20034;-84
2020/12/27 03:37:43;;;;;;;13.68;10.80;;;5.80;99.90;;;;;;4941935;28;20027;-84
2020/12/27 03:40:09;;;;;;;12.88;10.85;;;5.80;99.90;;;;;;4958128;28;20461;-83
2020/12/27 03:42:34;;;;;;;14.35;9.48;;;5.70;99.90;;;;;;4941756;28;20469;-83
2020/12/27 03:45:01;;;;;;;12.32;9.82;;;5.70;99.90;;;;;;4954585;28;20106;-84
2020/12/27 03:47:26;;;;;;;10.75;8.82;;;5.80;99.90;;;;;;4973704;28;20461;-84
2020/12/27 03:49:52;;;;;;;12.25;9.25;;;5.80;99.90;;;;;;4940793;28;20038;-83
2020/12/27 03:52:18;;;;;;;10.02;7.68;;;5.80;99.90;;;;;;4941479;28;20038;-83
2020/12/27 03:54:44;;;;;;;10.68;9.10;;;5.80;99.90;;;;;;4957545;28;20085;-83
2020/12/27 03:57:09;;;;;;;9.82;7.28;;;5.80;99.90;;;;;;4957746;28;20107;-84
2020/12/27 03:59:35;;;;;;;11.25;7.68;;;5.80;99.90;;;;;;4957425;28;20023;-84
2020/12/27 04:02:00;;;;;;;8.50;6.93;;;5.80;99.90;;;;;;4957791;28;20085;-84
2020/12/27 04:04:26;;;;;;;9.65;6.95;;;5.80;99.90;;;;;;4941392;28;20485;-84
2020/12/27 04:06:52;;;;;;;9.85;7.30;;;5.80;99.90;;;;;;4957397;28;20038;-84
2020/12/27 04:09:18;;;;;;;11.73;6.38;;;5.90;99.90;;;;;;4957016;28;20050;-85
2020/12/27 04:11:44;;;;;;;9.80;6.55;;;5.90;99.90;;;;;;4990630;28;20400;-84
2020/12/27 04:14:10;;;;;;;8.75;6.57;;;5.90;99.90;;;;;;4959261;28;20098;-83
2020/12/27 04:16:35;;;;;;;8.82;6.28;;;5.90;99.90;;;;;;4958273;28;20138;-84
2020/12/27 04:19:01;;;;;;;9.00;6.25;;;5.90;99.90;;;;;;4973636;28;20592;-82
2020/12/27 04:21:27;;;;;;;10.07;7.13;;;5.80;99.90;;;;;;4957214;28;20503;-83
2020/12/27 04:23:52;;;;;;;7.40;6.35;;;5.90;99.90;;;;;;4957508;28;20123;-83
2020/12/27 04:26:18;;;;;;;10.07;6.50;;;5.90;99.90;;;;;;4994289;28;20058;-82
2020/12/27 04:28:44;;;;;;;8.27;6.03;;;5.90;99.90;;;;;;4982026;28;20039;-83
2020/12/27 04:31:20;;;;;;;8.30;6.30;;;5.90;99.90;;;;;;4943847;28;20058;-82
2020/12/27 04:33:49;;;;;;;8.63;5.65;;;5.90;99.90;;;;;;4974563;28;20041;-83
2020/12/27 04:36:16;;;;;;;7.72;6.00;;;6.00;99.90;;;;;;4957557;28;20126;-85
2020/12/27 04:38:42;;;;;;;7.82;6.03;;;6.00;99.90;;;;;;4957107;28;20039;-84
2020/12/27 04:41:11;;;;;;;8.02;5.95;;;5.90;99.90;;;;;;4973062;28;20034;-83
2020/12/27 04:43:39;;;;;;;7.88;5.90;;;6.00;99.90;;;;;;4957172;28;20023;-84
2020/12/27 04:46:07;;;;;;;7.25;5.28;;;5.90;99.90;;;;;;4974248;28;20102;-83
2020/12/27 04:48:33;;;;;;;6.88;5.38;;;5.90;99.90;;;;;;4940529;28;20109;-83
2020/12/27 04:51:07;;;;;;;7.22;5.80;;;6.00;99.90;;;;;;4956598;28;20094;-83
2020/12/27 04:53:37;;;;;;;8.30;5.57;;;6.10;99.90;;;;;;4956931;28;20113;-83
2020/12/27 04:56:05;;;;;;;7.35;5.28;;;6.00;99.90;;;;;;4974567;28;20062;-82
2020/12/27 04:58:32;;;;;;;6.65;5.43;;;6.10;99.90;;;;;;4957576;28;20030;-84
2020/12/27 05:01:00;;;;;;;8.02;5.90;;;6.10;99.90;;;;;;4974226;28;20031;-83
2020/12/27 05:03:26;;;;;;;8.70;5.38;;;6.10;99.90;;;;;;4940933;28;20059;-83
2020/12/27 05:05:53;;;;;;;6.43;5.20;;;6.20;99.90;;;;;;4973833;28;20487;-83
2020/12/27 05:08:20;;;;;;;8.05;5.60;;;6.20;99.90;;;;;;4974015;28;20031;-84
2020/12/27 05:10:46;;;;;;;8.68;5.25;;;6.20;99.90;;;;;;4974286;28;20062;-84
2020/12/27 05:13:13;;;;;;;9.88;6.10;;;6.20;99.90;;;;;;4956861;28;20038;-84
2020/12/27 05:15:40;;;;;;;8.43;5.55;;;6.20;99.90;;;;;;4956347;28;20492;-83
2020/12/27 05:18:06;;;;;;;6.63;5.93;;;6.20;99.90;;;;;;4956369;28;20033;-83
2020/12/27 05:20:33;;;;;;;7.38;5.18;;;6.20;99.90;;;;;;4956649;28;20034;-84
2020/12/27 05:23:06;;;;;;;9.70;5.35;;;6.20;99.90;;;;;;4940528;28;20039;-82
2020/12/27 05:25:33;;;;;;;5.63;4.80;;;6.20;99.90;;;;;;4940247;28;20062;-83
2020/12/27 05:28:08;;;;;;;9.25;4.93;;;6.20;99.90;;;;;;4973664;28;20030;-83
2020/12/27 05:30:33;;;;;;;;;;;6.20;99.90;;;;;;4974447;28;20044;-83
2020/12/27 05:32:59;;;;;;;5.15;4.65;;;6.20;99.90;;;;;;4974180;28;19910;-83
2020/12/27 05:35:25;;;;;;;6.03;4.50;;;6.20;99.90;;;;;;4973792;28;20035;-82
2020/12/27 05:37:51;;;;;;;7.07;4.82;;;6.20;99.90;;;;;;4958252;28;20396;-83
2020/12/27 05:40:18;;;;;;;5.68;3.97;;;6.30;99.90;;;;;;4944177;28;20043;-83
2020/12/27 05:42:45;;;;;;;4.68;4.10;;;6.30;99.90;;;;;;4960267;28;20031;-83
2020/12/27 05:45:16;;;;;;;5.55;4.35;;;6.30;99.90;;;;;;4959696;28;20038;-83
2020/12/27 05:47:42;;;;;;;5.30;4.00;;;6.30;99.90;;;;;;4977334;28;20027;-84
2020/12/27 05:50:13;;;;;;;5.57;3.75;;;6.30;99.90;;;;;;4960013;28;20031;-82
2020/12/27 05:52:47;;;;;;;5.10;3.28;;;6.30;99.90;;;;;;4959668;28;20026;-81
2020/12/27 05:55:18;;;;;;;6.95;4.05;;;6.30;99.90;;;;;;4977566;28;20035;-83
2020/12/27 05:57:54;;;;;;;4.57;3.30;;;6.30;99.90;;;;;;4976884;28;20105;-83
2020/12/27 06:00:23;;;;;;;4.55;3.95;;;6.20;99.90;;;;;;4959928;28;20027;-82
2020/12/27 06:02:56;;;;;;;4.13;3.35;;;6.20;99.90;;;;;;4991796;28;20030;-83
2020/12/27 06:05:53;;;;;;;4.55;3.03;;;6.30;99.90;;;;;;4943601;28;20034;-83
2020/12/27 06:08:27;;;;;;;3.85;3.17;;;6.30;99.90;;;;;;4959886;28;20030;-82
2020/12/27 06:11:13;;;;;;;;;;;6.30;99.90;;;;;;4960131;28;20043;-84
2020/12/27 06:13:57;;;;;;;4.25;2.97;;;6.30;99.90;;;;;;4946565;28;19906;-83
2020/12/27 06:16:39;;;;;;;5.07;2.65;;;6.30;99.90;;;;;;4959201;28;20066;-85
2020/12/27 06:19:18;;;;;;;5.63;2.97;;;6.30;99.90;;;;;;4992068;28;20430;-85
2020/12/27 06:22:05;;;;;;;4.20;2.53;;;6.30;99.90;;;;;;4959514;28;20027;-83
2020/12/27 06:24:38;;;;;;;3.42;2.20;;;6.30;99.90;;;;;;4976440;28;20030;-91
2020/12/27 06:27:06;;;;;;;3.58;2.15;;;6.30;99.90;;;;;;4975718;28;20213;-84
2020/12/27 06:29:52;;;;;;;4.70;1.98;;;6.40;99.90;;;;;;4959042;28;20384;-85
2020/12/27 06:32:23;;;;;;;3.47;1.85;;;6.40;99.90;;;;;;4976573;28;20050;-84
2020/12/27 06:34:49;;;;;;;3.40;2.03;;;6.40;99.90;;;;;;4958850;28;20158;-84
2020/12/27 06:37:15;;;;;;;2.47;1.60;;;6.50;99.90;;;;;;4958855;28;20050;-84
2020/12/27 06:39:45;;;;;;;2.00;1.55;;;6.50;99.90;;;;;;4958932;28;20023;-84
2020/12/27 06:42:14;;;;;;;1.85;1.52;;;6.50;99.90;;;;;;4959344;28;20026;-84
2020/12/27 06:44:44;;;;;;;4.10;1.63;;;6.50;99.90;;;;;;4959125;28;20037;-84
2020/12/27 06:47:11;;;;;;;2.63;1.67;;;6.50;99.90;;;;;;4943010;28;20499;-85
2020/12/27 06:49:38;;;;;;;5.53;1.67;;;6.40;99.90;;;;;;4958087;28;20425;-84
2020/12/27 06:52:19;;;;;;;2.65;1.40;;;6.50;99.90;;;;;;4942874;28;20038;-83
2020/12/27 06:54:48;;;;;;;1.58;1.20;;;6.60;99.90;;;;;;4958685;28;20019;-84
2020/12/27 06:57:46;;;;;;;1.60;1.35;;;6.60;99.90;;;;;;4959029;28;20107;-83
2020/12/27 07:00:18;;;;;;;4.07;1.83;;;6.50;99.90;;;;;;4958759;28;20058;-84
2020/12/27 07:02:44;;;;;;;1.63;1.20;;;6.50;99.90;;;;;;4981180;28;20031;-83
2020/12/27 07:05:11;;;;;;;3.90;1.13;;;6.60;99.90;;;;;;4950832;28;20031;-84
2020/12/27 07:07:44;;;;;;;1.90;1.10;;;6.70;99.90;;;;;;4959147;28;20090;-85
2020/12/27 07:10:13;;;;;;;2.20;1.10;;;6.70;99.90;;;;;;4976241;28;20047;-86
2020/12/27 07:12:39;;;;;;;2.47;1.30;;;6.60;99.90;;;;;;4974504;28;20085;-84
2020/12/27 07:15:09;;;;;;;1.90;1.30;;;6.60;99.90;;;;;;4958345;28;20031;-84
2020/12/27 07:17:35;;;;;;;2.42;1.08;;;6.60;99.90;;;;;;4958682;28;20494;-84
2020/12/27 07:20:02;;;;;;;1.00;0.90;;;6.60;99.90;;;;;;4958591;28;20026;-85
2020/12/27 07:22:27;;;;;;;1.30;1.13;;;6.60;99.90;;;;;;4958714;28;20031;-84
2020/12/27 07:24:53;;;;;;;1.05;0.85;;;6.70;99.90;;;;;;4975673;28;20422;-84
2020/12/27 07:27:19;;;;;;;2.22;0.98;;;6.70;99.90;;;;;;4958476;28;20039;-83
2020/12/27 07:29:58;;;;;;;3.50;0.93;;;6.80;99.90;;;;;;4958241;28;20042;-85
2020/12/27 07:32:24;;;;;;;2.03;0.85;;;6.80;99.90;;;;;;4958423;28;20366;-84
2020/12/27 07:34:55;;;;;;;1.40;1.10;;;6.90;99.90;;;;;;4942539;28;20031;-84
2020/12/27 07:37:27;;;;;;;1.73;0.90;;;6.80;99.90;;;;;;4958367;28;20537;-84
2020/12/27 07:39:59;;;;;;;1.55;1.25;;;6.80;99.90;;;;;;4958163;28;20039;-85
2020/12/27 07:42:28;;;;;;;1.60;0.90;;;6.80;99.90;;;;;;4942059;28;20121;-85
2020/12/27 07:44:59;;;;;;;2.25;0.70;;;6.80;99.90;;;;;;4941996;28;20092;-84
2020/12/27 07:47:25;;;;;;;2.28;1.30;;;6.80;99.90;;;;;;4974554;28;20114;-86
2020/12/27 07:50:14;;;;;;;1.27;0.80;;;6.80;99.90;;;;;;4974975;28;20038;-85
2020/12/27 07:52:52;;;;;;;1.15;1.00;;;6.90;99.90;;;;;;4957707;28;20023;-86
2020/12/27 07:55:34;;;;;;;1.20;1.10;;;6.90;99.90;;;;;;4975074;28;20031;-85
2020/12/27 07:58:05;;;;;;;1.30;0.90;;;6.90;99.90;;;;;;4957581;28;20035;-85
2020/12/27 08:00:40;;;;;;;1.63;1.00;;;6.80;99.90;;;;;;4957568;28;20469;-85
2020/12/27 08:03:07;;;;;;;1.88;1.00;;;6.90;99.90;;;;;;4958408;28;20027;-86
2020/12/27 08:05:40;;;;;;;3.22;1.48;;;6.90;99.90;;;;;;4957586;28;20062;-83
2020/12/27 08:08:10;;;;;;;1.35;1.10;;;6.90;99.90;;;;;;4941475;28;20473;-85
2020/12/27 08:10:36;;;;;;;4.70;1.17;;;6.90;99.90;;;;;;4957695;28;20055;-84
2020/12/27 08:13:04;;;;;;;1.98;1.00;;;6.90;99.90;;;;;;4975147;28;20062;-85
2020/12/27 08:15:34;;;;;;;1.40;0.98;;;6.90;99.90;;;;;;4958846;28;20042;-85
2020/12/27 08:18:08;;;;;;;2.85;1.13;;;6.90;99.90;;;;;;4959224;28;20118;-85
2020/12/27 08:20:47;;;;;;;2.85;1.10;;;6.90;99.90;;;;;;4979472;28;20097;-85
2020/12/27 08:23:16;;;;;;;1.48;0.90;;;7.00;99.90;;;;;;4958491;28;20046;-88
2020/12/27 08:25:42;;;;;;;1.42;0.90;;;7.00;99.90;;;;;;4942077;28;20043;-86
2020/12/27 08:28:14;;;;;;;2.92;1.00;;;7.00;99.90;;;;;;4958218;28;20126;-89
2020/12/27 08:30:40;;;;;;;1.67;0.90;;;7.00;99.90;;;;;;4975355;28;20105;-84
2020/12/27 08:33:16;;;;;;;1.30;1.08;;;7.00;99.90;;;;;;4958387;28;20125;-85
2020/12/27 08:35:47;;;;;;;3.28;1.00;;;7.00;99.90;;;;;;4961485;28;20090;-85
2020/12/27 08:38:40;;;;;;;1.05;0.80;;;7.10;99.90;;;;;;4959703;28;20519;-86
2020/12/27 08:41:23;;;;;;;1.40;0.77;;;7.10;99.90;;;;;;4958381;28;20090;-86
2020/12/27 08:44:07;;;;;;;1.10;1.00;;;7.10;99.90;;;;;;4958882;28;20107;-86
2020/12/27 08:46:40;;;;;;;2.30;1.17;;;7.10;99.90;;;;;;4957881;28;20061;-86
2020/12/27 08:49:19;;;;;;;1.05;0.80;;;7.10;99.90;;;;;;4957196;28;20034;-86
2020/12/27 08:51:51;;;;;;;1.73;1.10;;;7.10;99.90;;;;;;4957461;28;20514;-92
2020/12/27 08:54:18;;;;;;;1.00;0.90;;;7.10;99.90;;;;;;4958994;28;20469;-87
2020/12/27 08:56:44;;;;;;;1.15;0.90;;;7.20;99.90;;;;;;4950137;28;20030;-87
2020/12/27 08:59:16;;;;;;;1.55;0.90;;;7.20;99.90;;;;;;4983076;28;20026;-86
2020/12/27 09:01:41;;;;;;;1.00;0.80;;;7.20;99.90;;;;;;4951189;28;20034;-87
2020/12/27 09:04:20;;;;;;;1.38;0.98;;;7.20;99.90;;;;;;4950702;28;20094;-87
2020/12/27 09:06:56;;;;;;;1.65;1.20;;;7.20;99.90;;;;;;4938413;29;20039;-87
2020/12/27 09:09:23;;;;;;;1.35;0.90;;;7.20;99.90;;;;;;4955432;28;20027;-88
2020/12/27 09:11:49;;;;;;;2.05;0.90;;;7.20;99.90;;;;;;4957453;28;20082;-88
2020/12/27 09:14:37;;;;;;;1.67;1.17;;;7.20;99.90;;;;;;4945029;28;20472;-88
2020/12/27 09:17:12;;;;;;;4.30;1.85;;;7.20;99.90;;;;;;4945290;28;20428;-87
2020/12/27 09:19:45;;;;;;;1.38;0.80;;;7.20;99.90;;;;;;4961930;28;20026;-87
2020/12/27 09:22:11;;;;;;;2.28;0.88;;;7.20;99.90;;;;;;4962131;28;20030;-87
2020/12/27 09:24:37;;;;;;;1.13;0.82;;;7.20;99.90;;;;;;4930074;28;20031;-86
2020/12/27 09:27:12;;;;;;;1.00;0.90;;;7.20;99.90;;;;;;4945663;28;20377;-85
2020/12/27 09:29:38;;;;;;;2.35;0.90;;;7.20;99.90;;;;;;4960854;28;20054;-86
2020/12/27 09:32:12;;;;;;;2.20;1.10;;;7.30;99.90;;;;;;4960648;28;20034;-86
2020/12/27 09:34:38;;;;;;;1.80;0.70;;;7.40;99.90;;;;;;4928936;28;20031;-87
2020/12/27 09:37:15;;;;;;;1.10;0.75;;;7.40;99.90;;;;;;4953766;28;20039;-83
2020/12/27 09:39:40;;;;;;;2.33;1.15;;;7.40;99.90;;;;;;4981374;28;20011;-84
2020/12/27 09:42:06;;;;;;;1.25;1.10;;;7.40;99.90;;;;;;4962307;28;20023;-86
2020/12/27 09:44:31;;;;;;;1.17;1.00;;;7.40;99.90;;;;;;4929856;28;20037;-87
2020/12/27 09:47:01;;;;;;;1.95;1.10;;;7.40;99.90;;;;;;4944168;28;20043;-85
2020/12/27 09:49:33;;;;;;;1.90;0.90;;;7.40;99.90;;;;;;4960891;28;20034;-84
2020/12/27 09:52:11;;;;;;;2.22;1.30;;;7.40;99.90;;;;;;4960061;28;20034;-85
2020/12/27 09:54:42;;;;;;;2.72;1.00;;;7.50;99.90;;;;;;4959725;28;20026;-85
2020/12/27 09:57:16;;;;;;;0.98;0.80;;;7.50;99.90;;;;;;4959751;28;20034;-88
2020/12/27 09:59:43;;;;;;;1.33;1.08;;;7.50;99.90;;;;;;4959650;28;20034;-84
2020/12/27 10:02:08;;;;;;;3.58;1.05;;;7.50;99.90;;;;;;4959620;28;20053;-85
2020/12/27 10:04:37;;;;;;;1.52;0.80;;;7.50;99.90;;;;;;4927770;28;20030;-85
2020/12/27 10:07:03;;;;;;;5.72;0.77;;;7.60;99.90;;;;;;4976733;28;20074;-85
2020/12/27 10:09:29;;;;;;;2.75;0.98;;;7.60;99.90;;;;;;4959356;28;20473;-85
2020/12/27 10:11:57;;;;;;;1.27;1.02;;;7.70;99.90;;;;;;4944263;28;20477;-86
2020/12/27 10:14:22;;;;;;;2.75;0.90;;;7.60;99.90;;;;;;4957601;28;20038;-85
2020/12/27 10:16:48;;;;;;;1.00;0.90;;;7.60;99.90;;;;;;4962946;28;20458;-86
2020/12/27 10:19:14;;;;;;;2.40;1.00;;;7.60;99.90;;;;;;4977531;28;20031;-85
2020/12/27 10:21:39;;;;;;;1.25;0.90;;;7.60;99.90;;;;;;4959711;28;20027;-87
2020/12/27 10:24:05;;;;;;;2.65;1.30;;;7.60;99.90;;;;;;4927720;28;20465;-87
2020/12/27 10:26:30;;;;;;;3.75;1.52;;;7.60;99.90;;;;;;4943557;28;20066;-87
2020/12/27 10:28:56;;;;;;;2.47;0.82;;;7.60;99.90;;;;;;4959505;28;20042;-87
2020/12/27 10:31:22;;;;;;;1.83;1.05;;;7.60;99.90;;;;;;4943377;28;20062;-87
2020/12/27 10:33:48;;;;;;;1.20;0.90;;;7.60;99.90;;;;;;4960692;28;20027;-86
2020/12/27 10:36:13;;;;;;;1.98;1.15;;;7.60;99.90;;;;;;4945476;28;20035;-84
2020/12/27 10:38:41;;;;;;;1.20;0.95;;;7.60;99.90;;;;;;4943533;28;20498;-86
2020/12/27 10:41:07;;;;;;;2.88;1.00;;;7.60;99.90;;;;;;4958891;28;20035;-86
2020/12/27 10:43:33;;;;;;;6.63;0.90;;;7.60;99.90;;;;;;4959804;28;20050;-85
2020/12/27 10:46:02;;;;;;;2.22;1.10;;;7.50;99.90;;;;;;4961753;28;20047;-86
2020/12/27 10:48:28;;;;;;;1.17;0.88;;;7.50;99.90;;;;;;4959596;28;20162;-87
2020/12/27 10:50:54;;;;;;;3.05;1.20;;;7.40;99.90;;;;;;4959008;28;20477;-86
2020/12/27 10:53:20;;;;;;;0.95;0.63;;;7.40;99.90;;;;;;4958757;28;20027;-86
2020/12/27 10:55:47;;;;;;;2.70;1.00;;;7.30;99.90;;;;;;4942069;28;20047;-86
2020/12/27 10:58:12;;;;;;;2.55;1.00;;;7.30;99.90;;;;;;4959059;28;20503;-86
2020/12/27 11:00:38;;;;;;;1.50;0.90;;;7.20;99.90;;;;;;4958502;28;20114;-86
2020/12/27 11:03:04;;;;;;;1.10;1.00;;;7.20;99.90;;;;;;4942943;28;20109;-85
2020/12/27 11:05:29;;;;;;;2.15;1.00;;;7.20;99.90;;;;;;4975808;28;20031;-85
2020/12/27 11:07:55;;;;;;;3.03;1.27;;;7.20;99.90;;;;;;4942742;28;20058;-86
2020/12/27 11:10:20;;;;;;;2.20;1.05;;;7.20;99.90;;;;;;4938958;29;20071;-85
2020/12/27 11:12:46;;;;;;;1.55;1.30;;;7.20;99.90;;;;;;4955489;29;20035;-85
2020/12/27 11:15:11;;;;;;;2.20;1.45;;;7.20;99.90;;;;;;4955348;29;20035;-85
2020/12/27 11:17:40;;;;;;;2.60;1.60;;;7.20;99.90;;;;;;4923220;29;20059;-85
2020/12/27 11:20:05;;;;;;;2.70;1.55;;;7.20;99.90;;;;;;4938924;29;20031;-86
2020/12/27 11:22:31;;;;;;;2.17;1.30;;;7.20;99.90;;;;;;4938770;29;20500;-86
2020/12/27 11:24:56;;;;;;;3.65;1.73;;;7.20;99.90;;;;;;4938789;29;20075;-86
2020/12/27 11:27:22;;;;;;;3.90;1.40;;;7.20;99.90;;;;;;4954728;29;20047;-86
2020/12/27 11:29:48;;;;;;;3.63;1.20;;;7.20;99.90;;;;;;4923605;29;20027;-86
2020/12/27 11:32:13;;;;;;;2.58;1.23;;;7.20;99.90;;;;;;4939003;29;20429;-86
2020/12/27 11:34:39;;;;;;;4.15;1.38;;;7.20;99.90;;;;;;4938283;29;20039;-85
2020/12/27 11:37:04;;;;;;;2.25;1.08;;;7.20;99.90;;;;;;4955170;29;20039;-87
2020/12/27 11:39:30;;;;;;;19.90;3.10;;;7.20;99.90;;;;;;4938547;29;20074;-86
2020/12/27 11:41:55;;;;;;;2.70;1.15;;;7.20;99.90;;;;;;4923161;29;20467;-86
2020/12/27 11:44:21;;;;;;;4.50;1.23;;;7.20;99.90;;;;;;4938792;29;20035;-86
2020/12/27 11:46:50;;;;;;;4.72;1.35;;;7.20;99.90;;;;;;4938673;29;20102;-86
2020/12/27 11:49:15;;;;;;;1.80;1.42;;;7.20;99.90;;;;;;4939132;29;20086;-86
2020/12/27 11:51:41;;;;;;;3.22;1.10;;;7.20;99.90;;;;;;4938635;29;20397;-85
2020/12/27 11:54:07;;;;;;;3.72;1.50;;;7.20;99.90;;;;;;4938117;29;20037;-86
2020/12/27 11:56:32;;;;;;;3.45;1.50;;;7.10;99.90;;;;;;4938853;29;20477;-84
2020/12/27 11:58:58;;;;;;;3.35;1.42;;;7.10;99.90;;;;;;4938795;29;20450;-84
2020/12/27 12:01:23;;;;;;;3.88;1.77;;;7.00;99.90;;;;;;4954339;29;20054;-85
2020/12/27 12:03:49;;;;;;;5.97;1.30;;;6.90;99.90;;;;;;4925151;28;20185;-85
2020/12/27 12:06:22;;;;;;;2.75;1.20;;;6.90;99.90;;;;;;4973327;28;20043;-87
2020/12/27 12:08:48;;;;;;;4.80;1.10;;;7.00;99.90;;;;;;4974133;28;20117;-86
2020/12/27 12:11:14;;;;;;;3.63;1.10;;;7.00;99.90;;;;;;4942129;28;20137;-85
2020/12/27 12:13:39;;;;;;;4.45;1.50;;;7.00;99.90;;;;;;4968137;28;20030;-83
2020/12/27 12:16:05;;;;;;;1.65;1.02;;;7.00;99.90;;;;;;4977010;28;20547;-84
2020/12/27 12:18:31;;;;;;;3.30;1.40;;;7.00;99.90;;;;;;4958416;28;20069;-85
2020/12/27 12:20:56;;;;;;;2.80;1.60;;;7.00;99.90;;;;;;4957826;28;20035;-86
2020/12/27 12:23:22;;;;;;;3.38;1.90;;;7.00;99.90;;;;;;4957690;28;20089;-88
2020/12/27 12:25:48;;;;;;;4.68;1.10;;;7.00;99.90;;;;;;4973486;28;20089;-85
2020/12/27 12:28:14;;;;;;;3.63;1.10;;;7.10;99.90;;;;;;4957337;28;20472;-84
2020/12/27 12:30:43;;;;;;;2.67;1.48;;;7.00;99.90;;;;;;4975403;28;20026;-87
2020/12/27 12:33:09;;;;;;;2.30;1.50;;;7.10;99.90;;;;;;4979265;28;20188;-87
2020/12/27 12:35:36;;;;;;;3.38;1.73;;;7.00;99.90;;;;;;4977657;28;20031;-86
2020/12/27 12:38:02;;;;;;;3.35;1.20;;;7.00;99.90;;;;;;4973138;28;20379;-86
2020/12/27 12:40:28;;;;;;;2.50;0.98;;;7.00;99.90;;;;;;4957229;28;20031;-86
2020/12/27 12:42:54;;;;;;;4.55;1.65;;;7.00;99.90;;;;;;4957224;28;20041;-85
2020/12/27 12:45:19;;;;;;;3.17;1.10;;;6.90;99.90;;;;;;4940813;28;20031;-86
2020/12/27 12:47:47;;;;;;;1.80;1.00;;;6.90;99.90;;;;;;4940565;28;20426;-86
2020/12/27 12:50:13;;;;;;;2.20;0.80;;;6.90;99.90;;;;;;4972701;28;20031;-86
2020/12/27 12:52:38;;;;;;;1.55;0.82;;;6.70;99.90;;;;;;4940831;28;20041;-85
2020/12/27 12:55:07;;;;;;;4.50;0.95;;;6.70;99.90;;;;;;4972700;28;20038;-86
2020/12/27 12:57:33;;;;;;;3.50;1.20;;;6.70;99.90;;;;;;4973082;28;20050;-85